Time;durP1;ratioP1;P1;durP2;ratioP2;P2;SDS_P1;SDS_P2;PMS_P1;PMS_P2;Temp;Humidity;BMP_temperature;BMP_pressure;BME280_temperature;BME280_humidity;BME280_pressure;Samples;Min_cycle;Max_cycle;Signal;HPM_P1;HPM_P2
2022/04/10 00:01:31;;;;;;;;;;;2.60;99.90;;;;;;5051211;28;19931;-71
2022/04/10 00:03:58;;;;;;;;;;;2.60;99.90;;;;;;5051291;28;20024;-73
2022/04/10 00:06:25;;;;;;;;;;;2.50;99.90;;;;;;5051514;28;19925;-73
2022/04/10 00:08:52;;;;;;;;;;;2.50;99.90;;;;;;5051124;28;19924;-73
2022/04/10 00:11:19;;;;;;;;;;;2.40;99.90;;;;;;5051188;28;20027;-74
2022/04/10 00:13:45;;;;;;;;;;;2.40;99.90;;;;;;5051283;28;19925;-72
2022/04/10 00:16:13;;;;;;;;;;;2.40;99.90;;;;;;5051223;28;19925;-74
2022/04/10 00:18:41;;;;;;;;;;;2.40;99.90;;;;;;5050851;28;19924;-73
2022/04/10 00:21:08;;;;;;;;;;;2.40;99.90;;;;;;5050743;28;19925;-72
2022/04/10 00:23:35;;;;;;;;;;;2.40;99.90;;;;;;5051004;28;19932;-73
2022/04/10 00:26:02;;;;;;;;;;;2.40;99.90;;;;;;5050985;28;19924;-70
2022/04/10 00:28:29;;;;;;;;;;;2.40;99.90;;;;;;5051122;28;19924;-73
2022/04/10 00:30:56;;;;;;;;;;;2.40;99.90;;;;;;5050914;28;19933;-73
2022/04/10 00:33:26;;;;;;;;;;;2.30;99.90;;;;;;5050991;28;19925;-73
2022/04/10 00:35:58;;;;;;;;;;;2.40;99.90;;;;;;5051086;28;19929;-74
2022/04/10 00:38:25;;;;;;;;;;;2.40;99.90;;;;;;5050882;28;19936;-70
2022/04/10 00:40:52;;;;;;;;;;;2.30;99.90;;;;;;5050727;28;19925;-73
2022/04/10 00:43:19;;;;;;;;;;;2.30;99.90;;;;;;5051037;28;19999;-73
2022/04/10 00:45:45;;;;;;;;;;;2.30;99.90;;;;;;5050508;28;19925;-74
2022/04/10 00:48:13;;;;;;;;;;;2.20;99.90;;;;;;5050274;28;19925;-73
2022/04/10 00:51:40;;;;;;;;;;;2.20;99.90;;;;;;5050754;28;20410;-72
2022/04/10 00:53:31;;;;;;;;;;;2.20;99.90;;;;;;5050513;28;20422;-74
2022/04/10 00:55:58;;;;;;;;;;;2.30;99.90;;;;;;5050586;28;19964;-74
2022/04/10 00:58:25;;;;;;;;;;;2.30;99.90;;;;;;5050543;28;19947;-72
2022/04/10 01:00:52;;;;;;;;;;;2.20;99.90;;;;;;5050596;28;19972;-73
2022/04/10 01:03:19;;;;;;;;;;;2.20;99.90;;;;;;5050404;28;19934;-73
2022/04/10 01:05:46;;;;;;;;;;;2.20;99.90;;;;;;5050410;28;19925;-73
2022/04/10 01:08:14;;;;;;;;;;;2.20;99.90;;;;;;5050459;28;19928;-73
2022/04/10 01:10:43;;;;;;;;;;;2.10;99.90;;;;;;5050390;28;19932;-71
2022/04/10 01:13:10;;;;;;;;;;;2.10;99.90;;;;;;5049762;28;19924;-73
2022/04/10 01:15:38;;;;;;;;;;;2.10;99.90;;;;;;5050069;28;19925;-70
2022/04/10 01:18:06;;;;;;;;;;;2.10;99.90;;;;;;5050190;28;19928;-73
2022/04/10 01:20:33;;;;;;;;;;;2.10;99.90;;;;;;5049947;28;20470;-75
2022/04/10 01:23:06;;;;;;;;;;;2.10;99.90;;;;;;5050470;28;19947;-73
2022/04/10 01:25:33;;;;;;;;;;;2.00;99.90;;;;;;5050143;28;19936;-74
2022/04/10 01:28:01;;;;;;;;;;;2.00;99.90;;;;;;5050321;28;19939;-74
2022/04/10 01:30:29;;;;;;;;;;;2.00;99.90;;;;;;5049961;28;19928;-74
2022/04/10 01:32:57;;;;;;;;;;;2.00;99.90;;;;;;5051663;28;19925;-73
2022/04/10 01:35:26;;;;;;;;;;;2.00;99.90;;;;;;5054483;28;19948;-73
2022/04/10 01:37:54;;;;;;;;;;;2.00;99.90;;;;;;5054304;28;20032;-73
2022/04/10 01:40:27;;;;;;;;;;;2.10;99.90;;;;;;5054284;28;19979;-73
2022/04/10 01:42:54;;;;;;;;;;;2.00;99.90;;;;;;5054284;28;19932;-74
2022/04/10 01:45:21;;;;;;;;;;;2.10;99.90;;;;;;5053598;28;19999;-70
2022/04/10 01:47:51;;;;;;;;;;;2.10;99.90;;;;;;5053465;28;20036;-75
2022/04/10 01:50:18;;;;;;;;;;;2.10;99.90;;;;;;5053417;28;20387;-72
2022/04/10 01:52:45;;;;;;;;;;;2.10;99.90;;;;;;5053837;28;19929;-73
2022/04/10 01:55:12;;;;;;;;;;;2.10;99.90;;;;;;5053707;28;20327;-73
2022/04/10 01:57:42;;;;;;;;;;;2.20;99.90;;;;;;5053774;28;20312;-73
2022/04/10 02:00:10;;;;;;;;;;;2.20;99.90;;;;;;5053601;28;19932;-73
2022/04/10 02:02:40;;;;;;;;;;;2.20;99.90;;;;;;5054892;28;19932;-73
2022/04/10 02:05:07;;;;;;;;;;;2.30;99.90;;;;;;5053439;28;20478;-71
2022/04/10 02:07:34;;;;;;;;;;;2.30;99.90;;;;;;5053607;28;19925;-74
2022/04/10 02:10:01;;;;;;;;;;;2.30;99.90;;;;;;5053168;28;20040;-75
2022/04/10 02:12:32;;;;;;;;;;;2.40;99.90;;;;;;5053733;28;19978;-74
2022/04/10 02:15:01;;;;;;;;;;;2.50;99.90;;;;;;5053019;28;20285;-73
2022/04/10 02:17:27;;;;;;;;;;;2.50;99.90;;;;;;5081941;22;19956;-77
2022/04/10 02:19:54;;;;;;;;;;;2.60;99.90;;;;;;5074222;28;20366;-78
2022/04/10 02:22:21;;;;;;;;;;;2.60;99.90;;;;;;5078651;28;19931;-78
2022/04/10 02:24:47;;;;;;;;;;;2.60;99.90;;;;;;5076984;28;19924;-78
2022/04/10 02:27:14;;;;;;;;;;;2.60;99.90;;;;;;5078255;28;19925;-78
2022/04/10 02:29:41;;;;;;;;;;;2.70;99.90;;;;;;5096838;28;19939;-78
2022/04/10 02:32:10;;;;;;;;;;;2.70;99.90;;;;;;5098275;28;19924;-78
2022/04/10 02:34:37;;;;;;;;;;;2.80;99.90;;;;;;5097407;28;20314;-78
2022/04/10 02:37:05;;;;;;;;;;;2.80;99.90;;;;;;5098631;28;19924;-77
2022/04/10 02:39:31;;;;;;;;;;;2.90;99.90;;;;;;5096779;28;19924;-77
2022/04/10 02:41:58;;;;;;;;;;;2.90;99.90;;;;;;5086219;28;19924;-78
2022/04/10 02:44:25;;;;;;;;;;;3.00;99.90;;;;;;5116779;27;19932;-78
2022/04/10 02:46:52;;;;;;;;;;;3.00;99.90;;;;;;5113454;28;19931;-78
2022/04/10 02:49:21;;;;;;;;;;;3.10;99.90;;;;;;5113970;28;19966;-78
2022/04/10 02:51:49;;;;;;;;;;;3.10;99.90;;;;;;5114616;28;19930;-77
2022/04/10 02:54:16;;;;;;;;;;;3.20;99.90;;;;;;5113658;28;19924;-78
2022/04/10 02:56:43;;;;;;;;;;;3.30;99.90;;;;;;5097111;28;19924;-78
2022/04/10 02:59:10;;;;;;;;;;;3.30;99.90;;;;;;5097159;28;19924;-78
2022/04/10 03:01:37;;;;;;;;;;;3.40;99.90;;;;;;5114178;28;19928;-78
2022/04/10 03:04:04;;;;;;;;;;;3.50;99.90;;;;;;5113245;28;19936;-77
2022/04/10 03:06:33;;;;;;;;;;;3.50;99.90;;;;;;5096707;28;20326;-78
2022/04/10 03:08:59;;;;;;;;;;;3.60;99.90;;;;;;5114656;28;19924;-78
2022/04/10 03:11:26;;;;;;;;;;;3.60;99.90;;;;;;5114244;28;19930;-78
2022/04/10 03:13:55;;;;;;;;;;;3.60;99.90;;;;;;5113089;28;19932;-78
2022/04/10 03:16:22;;;;;;;;;;;3.70;99.90;;;;;;5113523;28;20399;-78
2022/04/10 03:18:51;;;;;;;;;;;3.70;99.90;;;;;;5113492;28;19970;-77
2022/04/10 03:21:18;;;;;;;;;;;3.60;99.90;;;;;;5113757;28;20364;-78
2022/04/10 03:23:46;;;;;;;;;;;3.60;99.90;;;;;;5114001;28;19928;-77
2022/04/10 03:26:13;;;;;;;;;;;3.70;99.90;;;;;;5113801;28;19924;-78
2022/04/10 03:28:40;;;;;;;;;;;3.70;99.90;;;;;;5112733;28;19928;-78
2022/04/10 03:31:07;;;;;;;;;;;3.70;99.90;;;;;;5113189;28;19928;-77
2022/04/10 03:33:34;;;;;;;;;;;3.60;99.90;;;;;;5113223;28;19935;-78
2022/04/10 03:36:01;;;;;;;;;;;3.60;99.90;;;;;;5112316;28;19925;-78
2022/04/10 03:38:29;;;;;;;;;;;3.60;99.90;;;;;;5113108;28;19924;-78
2022/04/10 03:40:57;;;;;;;;;;;3.60;99.90;;;;;;5112597;28;19924;-78
2022/04/10 03:43:24;;;;;;;;;;;3.60;99.90;;;;;;5111924;28;19924;-77
2022/04/10 03:45:51;;;;;;;;;;;3.60;99.90;;;;;;5110612;28;19954;-77
2022/04/10 03:48:20;;;;;;;;;;;3.60;99.90;;;;;;5093041;28;19924;-78
2022/04/10 03:50:47;;;;;;;;;;;3.70;99.90;;;;;;5110252;28;19924;-76
2022/04/10 03:53:16;;;;;;;;;;;3.70;99.90;;;;;;5110264;28;19924;-77
2022/04/10 03:55:43;;;;;;;;;;;3.70;99.90;;;;;;5109635;28;19957;-78
2022/04/10 03:58:12;;;;;;;;;;;3.70;99.90;;;;;;5110390;28;19925;-78
2022/04/10 04:00:39;;;;;;;;;;;3.70;99.90;;;;;;5109785;28;19924;-77
2022/04/10 04:03:10;;;;;;;;;;;3.70;99.90;;;;;;5110092;28;19924;-77
2022/04/10 04:05:39;;;;;;;;;;;3.80;99.90;;;;;;5112114;28;19931;-80
2022/04/10 04:08:09;;;;;;;;;;;3.80;99.90;;;;;;5114143;28;20065;-79
2022/04/10 04:10:36;;;;;;;;;;;3.70;99.90;;;;;;5094422;28;19931;-78
2022/04/10 04:13:05;;;;;;;;;;;3.70;99.90;;;;;;5110954;28;19924;-78
2022/04/10 04:15:34;;;;;;;;;;;3.80;99.90;;;;;;5093364;28;20419;-78
2022/04/10 04:18:01;;;;;;;;;;;3.80;99.90;;;;;;5109955;28;19928;-77
2022/04/10 04:20:28;;;;;;;;;;;3.80;99.90;;;;;;5092663;28;19928;-77
2022/04/10 04:22:55;;;;;;;;;;;3.80;99.90;;;;;;5109744;28;19932;-77
2022/04/10 04:25:23;;;;;;;;;;;3.80;99.90;;;;;;5110079;28;19924;-78
2022/04/10 04:27:53;;;;;;;;;;;3.80;99.90;;;;;;5110610;28;19931;-78
2022/04/10 04:30:20;;;;;;;;;;;3.80;99.90;;;;;;5110438;28;19924;-78
2022/04/10 04:32:51;;;;;;;;;;;3.80;99.90;;;;;;5110537;28;20370;-78
2022/04/10 04:35:18;;;;;;;;;;;3.70;99.90;;;;;;5109864;28;19987;-78
2022/04/10 04:37:45;;;;;;;;;;;3.70;99.90;;;;;;5109847;28;20035;-77
2022/04/10 04:40:17;;;;;;;;;;;3.80;99.90;;;;;;5110179;28;19928;-78
2022/04/10 04:42:45;;;;;;;;;;;3.70;99.90;;;;;;5093345;28;19946;-78
2022/04/10 04:45:13;;;;;;;;;;;3.70;99.90;;;;;;5093141;28;20307;-78
2022/04/10 04:47:48;;;;;;;;;;;3.70;99.90;;;;;;5092967;28;20415;-77
2022/04/10 04:50:17;;;;;;;;;;;3.70;99.90;;;;;;5108762;28;19967;-77
2022/04/10 04:52:44;;;;;;;;;;;3.70;99.90;;;;;;5109424;28;19931;-78
2022/04/10 04:55:11;;;;;;;;;;;3.70;99.90;;;;;;5110466;28;20313;-78
2022/04/10 04:57:38;;;;;;;;;;;3.70;99.90;;;;;;5109883;28;19928;-78
2022/04/10 05:00:08;;;;;;;;;;;3.70;99.90;;;;;;5092773;28;19924;-77
2022/04/10 05:02:39;;;;;;;;;;;3.70;99.90;;;;;;5087454;28;19961;-77
2022/04/10 05:05:07;;;;;;;;;;;3.80;99.90;;;;;;5092338;28;19971;-78
2022/04/10 05:07:36;;;;;;;;;;;3.80;99.90;;;;;;5092567;28;20036;-78
2022/04/10 05:10:03;;;;;;;;;;;3.80;99.90;;;;;;5092658;28;19928;-77
2022/04/10 05:12:34;;;;;;;;;;;3.80;99.90;;;;;;5092583;28;19928;-78
2022/04/10 05:15:04;;;;;;;;;;;3.80;99.90;;;;;;5093359;28;19969;-77
2022/04/10 05:17:31;;;;;;;;;;;3.80;99.90;;;;;;5092196;28;20022;-78
2022/04/10 05:19:59;;;;;;;;;;;3.80;99.90;;;;;;5092062;28;19935;-77
2022/04/10 05:22:27;;;;;;;;;;;3.90;99.90;;;;;;5092837;28;19970;-77
2022/04/10 05:25:02;;;;;;;;;;;3.90;99.90;;;;;;5092236;28;19924;-77
2022/04/10 05:27:30;;;;;;;;;;;3.90;99.90;;;;;;5090957;28;19924;-77
2022/04/10 05:29:57;;;;;;;;;;;3.90;99.90;;;;;;5091110;28;19962;-77
2022/04/10 05:32:24;;;;;;;;;;;3.90;99.90;;;;;;5090948;28;19925;-76
2022/04/10 05:34:51;;;;;;;;;;;3.90;99.90;;;;;;5091176;28;19988;-77
2022/04/10 05:37:21;;;;;;;;;;;3.90;99.90;;;;;;5091704;28;20023;-77
2022/04/10 05:39:51;;;;;;;;;;;3.90;99.90;;;;;;5091064;28;19924;-76
2022/04/10 05:42:19;;;;;;;;;;;3.90;99.90;;;;;;5091298;28;19924;-76
2022/04/10 05:44:46;;;;;;;;;;;4.00;99.90;;;;;;5091086;28;19924;-77
2022/04/10 05:47:14;;;;;;;;;;;4.00;99.90;;;;;;5090426;28;19928;-77
2022/04/10 05:49:42;;;;;;;;;;;4.00;99.90;;;;;;5090735;28;19928;-77
2022/04/10 05:52:09;;;;;;;;;;;4.10;99.90;;;;;;5091224;28;19931;-77
2022/04/10 05:54:36;;;;;;;;;;;4.10;99.90;;;;;;5090697;28;19931;-77
2022/04/10 05:57:04;;;;;;;;;;;4.10;99.90;;;;;;5091071;28;19924;-77
2022/04/10 05:59:32;;;;;;;;;;;4.10;99.90;;;;;;5090842;28;19967;-77
2022/04/10 06:02:00;;;;;;;;;;;4.10;99.90;;;;;;5090938;28;19928;-76
2022/04/10 06:04:27;;;;;;;;;;;4.20;99.90;;;;;;5090761;28;19924;-77
2022/04/10 06:06:54;;;;;;;;;;;4.20;99.90;;;;;;5091194;28;19924;-77
2022/04/10 06:09:30;;;;;;;;;;;4.20;99.90;;;;;;5090937;28;19932;-77
2022/04/10 06:11:57;;;;;;;;;;;4.30;99.90;;;;;;5090671;28;19924;-77
2022/04/10 06:14:26;;;;;;;;;;;4.30;99.90;;;;;;5091256;28;19967;-77
2022/04/10 06:16:55;;;;;;;;;;;4.30;99.90;;;;;;5090752;28;20406;-77
2022/04/10 06:19:27;;;;;;;;;;;4.40;99.90;;;;;;5092514;28;19924;-76
2022/04/10 06:21:54;;;;;;;;;;;4.40;99.90;;;;;;5094649;28;19928;-76
2022/04/10 06:24:21;;;;;;;;;;;4.40;99.90;;;;;;5094439;28;19960;-77
2022/04/10 06:26:50;;;;;;;;;;;4.40;99.90;;;;;;5092688;28;19966;-76
2022/04/10 06:29:17;;;;;;;;;;;4.40;99.90;;;;;;5086094;28;19926;-77
2022/04/10 06:31:49;;;;;;;;;;;4.50;99.90;;;;;;5094572;28;20448;-77
2022/04/10 06:34:20;;;;;;;;;;;4.60;99.90;;;;;;5128592;27;19924;-77
2022/04/10 06:36:47;;;;;;;;;;;4.60;99.90;;;;;;5128595;27;20379;-77
2022/04/10 06:39:17;;;;;;;;;;;4.60;99.90;;;;;;5128499;27;19924;-77
2022/04/10 06:41:45;;;;;;;;;;;4.70;99.90;;;;;;5128533;27;20022;-77
2022/04/10 06:44:23;;;;;;;;;;;4.70;99.90;;;;;;5128148;27;19969;-78
2022/04/10 06:47:06;;;;;;;;;;;4.80;99.90;;;;;;5128162;27;19924;-77
2022/04/10 06:49:37;;;;;;;;;;;4.80;99.90;;;;;;5127796;27;19925;-77
2022/04/10 06:52:05;;;;;;;;;;;4.90;99.90;;;;;;5128578;27;19962;-77
2022/04/10 06:54:37;;;;;;;;;;;4.90;99.90;;;;;;5093954;28;19924;-77
2022/04/10 06:57:04;;;;;;;;;;;5.00;99.90;;;;;;5128511;27;19924;-77
2022/04/10 06:59:32;;;;;;;;;;;5.10;99.90;;;;;;5127515;27;19924;-76
2022/04/10 07:02:03;;;;;;;;;;;5.20;99.90;;;;;;5128175;27;19989;-77
2022/04/10 07:04:30;;;;;;;;;;;5.20;99.90;;;;;;5093535;28;20341;-78
2022/04/10 07:07:03;;;;;;;;;;;5.30;99.90;;;;;;5093703;28;19925;-77
2022/04/10 07:09:30;;;;;;;;;;;5.40;99.90;;;;;;5093284;28;19928;-77
2022/04/10 07:11:58;;;;;;;;;;;5.50;99.90;;;;;;5112619;27;20379;-77
2022/04/10 07:14:41;;;;;;;;;;;5.50;99.90;;;;;;5085179;28;19924;-79
2022/04/10 07:17:08;;;;;;;;;;;5.60;99.90;;;;;;5082047;28;19924;-77
2022/04/10 07:19:35;;;;;;;;;;;5.70;99.90;;;;;;5072541;28;19971;-77
2022/04/10 07:24:48;;;;;;;;;;;5.80;99.90;;;;;;5072798;28;20410;-77
2022/04/10 07:27:15;;;;;;;;;;;5.80;99.90;;;;;;5086788;28;19924;-77
2022/04/10 07:29:54;;;;;;;;;;;5.90;99.90;;;;;;5078238;28;19931;-76
2022/04/10 07:32:26;;;;;;;;;;;6.00;99.90;;;;;;5118706;27;19931;-77
2022/04/10 07:35:02;;;;;;;;;;;6.00;99.90;;;;;;5111170;27;19978;-77
2022/04/10 07:37:56;;;;;;;;;;;6.10;99.90;;;;;;5086734;28;19931;-77
2022/04/10 07:40:23;;;;;;;;;;;6.20;99.90;;;;;;5117387;27;19970;-78
2022/04/10 07:42:52;;;;;;;;;;;6.20;99.90;;;;;;5127003;27;19924;-78
2022/04/10 07:48:31;;;;;;;;;;;6.30;99.90;;;;;;5087366;28;19928;-78
2022/04/10 07:50:58;;;;;;;;;;;6.40;99.90;;;;;;5128248;27;20349;-78
2022/04/10 07:53:37;;;;;;;;;;;6.40;99.90;;;;;;5094505;28;19978;-77
2022/04/10 07:56:04;;;;;;;;;;;6.50;99.90;;;;;;5127610;27;20294;-78
2022/04/10 07:58:32;;;;;;;;;;;6.50;99.90;;;;;;5093290;28;19924;-78
2022/04/10 08:01:06;;;;;;;;;;;6.70;99.90;;;;;;5127997;27;19953;-78
2022/04/10 08:03:32;;;;;;;;;;;6.70;99.90;;;;;;5130433;27;19928;-78
2022/04/10 08:06:31;;;;;;;;;;;6.80;99.90;;;;;;5095001;28;20406;-78
2022/04/10 08:09:00;;;;;;;;;;;6.90;99.90;;;;;;5087494;28;19967;-79
2022/04/10 08:11:28;;;;;;;;;;;6.90;99.90;;;;;;5087322;28;20427;-79
2022/04/10 08:13:54;;;;;;;;;;;6.90;99.90;;;;;;5080347;28;19924;-80
2022/04/10 08:16:21;;;;;;;;;;;7.00;99.90;;;;;;5085433;28;20352;-78
2022/04/10 08:18:48;;;;;;;;;;;7.10;99.90;;;;;;5087151;28;19938;-79
2022/04/10 08:21:15;;;;;;;;;;;7.20;99.90;;;;;;5124733;27;19931;-78
2022/04/10 08:23:42;;;;;;;;;;;7.20;99.90;;;;;;5130536;27;19928;-78
2022/04/10 08:26:10;;;;;;;;;;;7.20;99.90;;;;;;5131210;27;19931;-78
2022/04/10 08:28:37;;;;;;;;;;;7.20;99.90;;;;;;5130143;27;20355;-79
2022/04/10 08:31:04;;;;;;;;;;;7.40;99.90;;;;;;5130693;27;19932;-79
2022/04/10 08:33:32;;;;;;;;;;;7.50;99.90;;;;;;5131888;27;19950;-79
2022/04/10 08:35:59;;;;;;;;;;;7.60;99.90;;;;;;5131360;27;20003;-78
2022/04/10 08:38:26;;;;;;;;;;;7.60;99.90;;;;;;5130559;27;20280;-79
2022/04/10 08:40:54;;;;;;;;;;;7.70;99.90;;;;;;5129880;27;19928;-78
2022/04/10 08:43:22;;;;;;;;;;;7.70;99.90;;;;;;5130601;27;19928;-79
2022/04/10 08:45:49;;;;;;;;;;;7.90;99.90;;;;;;5132364;27;20393;-78
2022/04/10 08:48:16;;;;;;;;;;;7.90;99.90;;;;;;5131449;27;19932;-79
2022/04/10 08:50:43;;;;;;;;;;;7.90;99.90;;;;;;5130963;27;19924;-78
2022/04/10 08:53:11;;;;;;;;;;;8.00;99.90;;;;;;5130859;27;20392;-79
2022/04/10 08:55:37;;;;;;;;;;;8.10;99.90;;;;;;5131185;27;19924;-78
2022/04/10 08:58:04;;;;;;;;;;;8.20;99.90;;;;;;5130443;27;19924;-78
2022/04/10 09:00:32;;;;;;;;;;;8.30;99.90;;;;;;5131736;27;19950;-79
2022/04/10 09:02:59;;;;;;;;;;;8.30;99.90;;;;;;5131432;27;19970;-78
2022/04/10 09:05:26;;;;;;;;;;;8.30;99.90;;;;;;5132066;27;20391;-79
2022/04/10 09:08:06;;;;;;;;;;;8.30;99.90;;;;;;5131765;27;19991;-78
2022/04/10 09:10:48;;;;;;;;;;;8.20;99.90;;;;;;5093540;28;20457;-79
2022/04/10 09:13:15;;;;;;;;;;;8.20;99.90;;;;;;5076096;28;19932;-78
2022/04/10 09:15:43;;;;;;;;;;;8.30;99.90;;;;;;5077330;28;19928;-78
2022/04/10 09:18:10;;;;;;;;;;;8.30;99.90;;;;;;5077224;28;19931;-78
2022/04/10 09:20:37;;;;;;;;;;;8.30;99.90;;;;;;5076810;28;20307;-78
2022/04/10 09:23:08;;;;;;;;;;;8.30;99.90;;;;;;5077008;28;19970;-78
2022/04/10 09:25:42;;;;;;;;;;;8.30;99.90;;;;;;5077505;28;19932;-79
2022/04/10 09:28:08;;;;;;;;;;;8.40;99.90;;;;;;5076437;28;19924;-78
2022/04/10 09:30:35;;;;;;;;;;;8.50;99.90;;;;;;5077139;28;19932;-79
2022/04/10 09:33:04;;;;;;;;;;;8.60;99.90;;;;;;5076600;28;19924;-79
2022/04/10 09:35:43;;;;;;;;;;;8.60;99.90;;;;;;5076311;28;19928;-78
2022/04/10 09:38:10;;;;;;;;;;;8.80;99.90;;;;;;5076938;28;20011;-78
2022/04/10 09:40:37;;;;;;;;;;;8.90;99.90;;;;;;5084153;28;19995;-78
2022/04/10 09:43:05;;;;;;;;;;;8.90;99.90;;;;;;5090191;28;19928;-78
2022/04/10 09:45:33;;;;;;;;;;;8.90;99.90;;;;;;5075552;28;20000;-78
2022/04/10 09:48:15;;;;;;;;;;;8.90;99.90;;;;;;5075401;28;19928;-78
2022/04/10 09:50:43;;;;;;;;;;;9.00;99.90;;;;;;5078086;28;20373;-78
2022/04/10 09:53:11;;;;;;;;;;;9.10;99.90;;;;;;5091317;28;19928;-78
2022/04/10 09:55:39;;;;;;;;;;;9.30;99.90;;;;;;5090208;28;19924;-78
2022/04/10 09:58:07;;;;;;;;;;;9.20;99.90;;;;;;5123006;27;19931;-78
2022/04/10 10:00:36;;;;;;;;;;;9.10;99.90;;;;;;5108657;28;19938;-78
2022/04/10 10:03:04;;;;;;;;;;;8.90;99.90;;;;;;5092265;28;19932;-78
2022/04/10 10:05:31;;;;;;;;;;;9.10;99.90;;;;;;5099177;28;20353;-78
2022/04/10 10:08:00;;;;;;;;;;;9.20;99.90;;;;;;5117957;28;19924;-78
2022/04/10 10:10:28;;;;;;;;;;;9.30;99.90;;;;;;5114644;28;20003;-78
2022/04/10 10:12:56;;;;;;;;;;;9.60;99.90;;;;;;5080824;28;19935;-78
2022/04/10 10:15:23;;;;;;;;;;;9.90;99.90;;;;;;5081047;28;19928;-77
2022/04/10 10:17:51;;;;;;;;;;;9.90;99.90;;;;;;5079896;28;19924;-78
2022/04/10 10:20:18;;;;;;;;;;;9.70;99.90;;;;;;5085072;28;20396;-82
2022/04/10 10:22:45;;;;;;;;;;;9.80;99.90;;;;;;5122983;27;19959;-78
2022/04/10 10:25:18;;;;;;;;;;;9.90;99.90;;;;;;5084549;28;19978;-79
2022/04/10 10:28:02;;;;;;;;;;;9.70;99.90;;;;;;5080856;28;19928;-78
2022/04/10 10:30:33;;;;;;;;;;;9.60;99.90;;;;;;5081135;28;19932;-78
2022/04/10 10:33:12;;;;;;;;;;;9.60;99.90;;;;;;5094281;28;19985;-78
2022/04/10 10:35:41;;;;;;;;;;;9.80;99.90;;;;;;5098895;28;19928;-77
2022/04/10 10:38:19;;;;;;;;;;;10.20;99.90;;;;;;5091680;28;19924;-78
2022/04/10 10:40:48;;;;;;;;;;;10.30;99.90;;;;;;5097702;28;19932;-79
2022/04/10 10:43:18;;;;;;;;;;;10.00;99.90;;;;;;5091600;28;19925;-79
2022/04/10 10:45:45;;;;;;;;;;;9.90;99.90;;;;;;5084469;28;19930;-79
2022/04/10 10:48:23;;;;;;;;;;;9.70;99.90;;;;;;5091236;28;19924;-78
2022/04/10 10:50:50;;;;;;;;;;;9.70;99.90;;;;;;5096968;28;19946;-78
2022/04/10 10:53:23;;;;;;;;;;;9.90;99.90;;;;;;5105647;28;19925;-79
2022/04/10 10:55:52;;;;;;;;;;;10.30;99.90;;;;;;5103758;28;19924;-78
2022/04/10 10:58:31;;;;;;;;;;;10.30;99.90;;;;;;5100382;28;19954;-80
2022/04/10 11:01:00;;;;;;;;;;;10.30;99.90;;;;;;5094378;28;19935;-78
2022/04/10 11:03:29;;;;;;;;;;;10.50;99.90;;;;;;5092674;28;19952;-78
2022/04/10 11:06:04;;;;;;;;;;;10.50;99.90;;;;;;5087229;28;20011;-78
2022/04/10 11:08:38;;;;;;;;;;;10.60;99.90;;;;;;5089973;28;19931;-78
2022/04/10 11:11:07;;;;;;;;;;;10.50;99.90;;;;;;5098719;28;19931;-78
2022/04/10 11:13:38;;;;;;;;;;;10.50;99.90;;;;;;5090871;28;19924;-78
2022/04/10 11:16:09;;;;;;;;;;;10.60;99.90;;;;;;5131838;27;19947;-79
2022/04/10 11:18:36;;;;;;;;;;;10.70;99.90;;;;;;5085858;28;19931;-79
2022/04/10 11:21:08;;;;;;;;;;;10.60;99.90;;;;;;5082554;28;19935;-80
2022/04/10 11:23:39;;;;;;;;;;;10.70;99.90;;;;;;5081133;28;19928;-78
2022/04/10 11:26:10;;;;;;;;;;;11.00;99.90;;;;;;5078847;28;19978;-77
2022/04/10 11:28:54;;;;;;;;;;;11.30;99.90;;;;;;5072919;28;19924;-76
2022/04/10 11:31:32;;;;;;;;;;;11.40;99.90;;;;;;5073652;28;19975;-76
2022/04/10 11:34:08;;;;;;;;;;;11.70;99.90;;;;;;5072367;28;19924;-74
2022/04/10 11:36:45;;;;;;;;;;;11.70;99.90;;;;;;5073137;28;19925;-76
2022/04/10 11:39:12;;;;;;;;;;;11.70;99.90;;;;;;5072524;28;20016;-74
2022/04/10 11:41:41;;;;;;;;;;;11.90;99.90;;;;;;5073442;28;19931;-76
2022/04/10 11:44:09;;;;;;;;;;;11.60;99.90;;;;;;5086957;28;19931;-77
2022/04/10 11:46:35;;;;;;;;;;;11.60;99.90;;;;;;5116291;27;19932;-78
2022/04/10 11:49:02;;;;;;;;;;;11.90;99.90;;;;;;5125725;27;19973;-77
2022/04/10 11:51:29;;;;;;;;;;;11.20;99.90;;;;;;5126106;27;19932;-77
2022/04/10 11:53:56;;;;;;;;;;;11.00;99.90;;;;;;5126406;27;19924;-77
2022/04/10 11:56:23;;;;;;;;;;;14.00;99.90;;;;;;5127356;27;20015;-77
2022/04/10 11:58:52;;;;;;;;;;;16.50;99.90;;;;;;5126604;27;20022;-77
2022/04/10 12:01:19;;;;;;;;;;;17.80;99.90;;;;;;5128464;27;19925;-77
2022/04/10 12:03:49;;;;;;;;;;;19.00;99.90;;;;;;5130477;27;19928;-77
2022/04/10 12:06:19;;;;;;;;;;;19.60;99.90;;;;;;5132106;27;20000;-77
2022/04/10 12:08:47;;;;;;;;;;;18.80;99.90;;;;;;5134583;27;19975;-78
2022/04/10 12:11:13;;;;;;;;;;;19.00;99.90;;;;;;5130567;27;19924;-78
2022/04/10 12:13:40;;;;;;;;;;;18.30;99.90;;;;;;5113824;27;20379;-77
2022/04/10 12:16:11;;;;;;;;;;;18.60;99.90;;;;;;5086561;28;19925;-78
2022/04/10 12:18:46;;;;;;;;;;;18.80;99.90;;;;;;5084211;28;19925;-78
2022/04/10 12:21:14;;;;;;;;;;;18.40;99.90;;;;;;5083825;28;20416;-78
2022/04/10 12:23:41;;;;;;;;;;;18.30;99.90;;;;;;5080377;28;19924;-77
2022/04/10 12:26:09;;;;;;;;;;;16.40;99.90;;;;;;5081078;28;19925;-77
2022/04/10 12:28:38;;;;;;;;;;;17.40;99.90;;;;;;5084854;28;20420;-77
2022/04/10 12:31:05;;;;;;;;;;;18.30;99.90;;;;;;5084622;28;19948;-78
2022/04/10 12:33:34;;;;;;;;;;;18.50;99.90;;;;;;5085706;28;19924;-77
2022/04/10 12:36:15;;;;;;;;;;;18.80;99.90;;;;;;5086219;28;19950;-77
2022/04/10 12:38:42;;;;;;;;;;;18.30;99.90;;;;;;5084852;28;19931;-77
2022/04/10 12:41:09;;;;;;;;;;;17.00;99.90;;;;;;5082578;28;19924;-77
2022/04/10 12:43:36;;;;;;;;;;;15.60;99.90;;;;;;5080129;28;19972;-77
2022/04/10 12:46:09;;;;;;;;;;;14.20;99.90;;;;;;5076476;28;19925;-78
2022/04/10 12:48:37;;;;;;;;;;;13.50;99.90;;;;;;5076500;28;19928;-78
2022/04/10 12:51:05;;;;;;;;;;;14.60;99.90;;;;;;5076521;28;19928;-78
2022/04/10 12:53:32;;;;;;;;;;;14.70;99.90;;;;;;5075739;28;19964;-78
2022/04/10 12:55:58;;;;;;;;;;;14.10;99.90;;;;;;5076302;28;19928;-77
2022/04/10 12:58:26;;;;;;;;;;;13.50;99.90;;;;;;5076068;28;19931;-79
2022/04/10 13:00:54;;;;;;;;;;;13.00;99.90;;;;;;5076289;28;19924;-80
2022/04/10 13:03:23;;;;;;;;;;;12.50;99.90;;;;;;5076482;28;19970;-79
2022/04/10 13:05:58;;;;;;;;;;;13.30;99.90;;;;;;5075453;28;19924;-80
2022/04/10 13:08:25;;;;;;;;;;;14.40;99.90;;;;;;5077216;28;20022;-80
2022/04/10 13:10:52;;;;;;;;;;;15.60;99.90;;;;;;5083959;28;20280;-77
2022/04/10 13:13:20;;;;;;;;;;;15.70;99.90;;;;;;5131323;27;19973;-77
2022/04/10 13:15:48;;;;;;;;;;;15.70;99.90;;;;;;5096446;28;20017;-77
2022/04/10 13:18:15;;;;;;;;;;;16.30;99.90;;;;;;5131040;27;20027;-78
2022/04/10 13:20:42;;;;;;;;;;;16.90;99.90;;;;;;5130710;27;19924;-80
2022/04/10 13:23:11;;;;;;;;;;;17.40;99.90;;;;;;5131952;28;19924;-78
2022/04/10 13:25:38;;;;;;;;;;;17.60;99.90;;;;;;5132071;28;20456;-78
2022/04/10 13:28:05;;;;;;;;;;;17.90;99.90;;;;;;5132991;27;19924;-78
2022/04/10 13:30:32;;;;;;;;;;;18.10;99.90;;;;;;5135272;27;20034;-78
2022/04/10 13:33:00;;;;;;;;;;;18.00;99.90;;;;;;5136636;27;19930;-78
2022/04/10 13:35:26;;;;;;;;;;;18.00;99.90;;;;;;5136697;27;20391;-78
2022/04/10 13:37:53;;;;;;;;;;;18.40;99.90;;;;;;5103308;28;19924;-78
2022/04/10 13:40:21;;;;;;;;;;;18.80;99.90;;;;;;5137157;27;19950;-79
2022/04/10 13:42:49;;;;;;;;;;;18.80;99.90;;;;;;5102159;28;19924;-78
2022/04/10 13:45:15;;;;;;;;;;;19.60;99.90;;;;;;5101636;28;19927;-78
2022/04/10 13:47:42;;;;;;;;;;;19.30;99.90;;;;;;5136879;27;19974;-79
2022/04/10 13:50:09;;;;;;;;;;;19.70;99.90;;;;;;5101122;28;19946;-78
2022/04/10 13:52:37;;;;;;;;;;;19.30;99.90;;;;;;5102685;28;19928;-78
2022/04/10 13:55:04;;;;;;;;;;;19.70;99.90;;;;;;5101899;28;19924;-78
2022/04/10 13:57:33;;;;;;;;;;;20.10;99.90;;;;;;5133826;27;19928;-78
2022/04/10 13:59:59;;;;;;;;;;;20.40;99.90;;;;;;5099099;28;19930;-78
2022/04/10 14:02:26;;;;;;;;;;;20.10;99.90;;;;;;5134660;27;19928;-79
2022/04/10 14:04:53;;;;;;;;;;;20.20;99.90;;;;;;5134673;27;19958;-79
2022/04/10 14:07:20;;;;;;;;;;;20.50;99.90;;;;;;5134310;27;20000;-79
2022/04/10 14:09:47;;;;;;;;;;;20.30;99.90;;;;;;5132538;27;20371;-79
2022/04/10 14:12:14;;;;;;;;;;;19.90;99.90;;;;;;5119281;27;19924;-79
2022/04/10 14:14:42;;;;;;;;;;;19.90;99.90;;;;;;5099524;28;19924;-79
2022/04/10 14:17:09;;;;;;;;;;;20.10;99.90;;;;;;5099572;28;19924;-79
2022/04/10 14:19:35;;;;;;;;;;;19.00;99.80;;;;;;5102198;22;19934;-70
2022/04/10 14:22:02;;;;;;;;;;;18.30;99.00;;;;;;5056469;28;19925;-75
2022/04/10 14:24:30;;;;;;;;;;;19.30;99.90;;;;;;5052795;28;19967;-75
2022/04/10 14:26:57;;;;;;;;;;;20.40;99.80;;;;;;5069829;28;19925;-76
2022/04/10 14:29:24;;;;;;;;;;;20.50;99.90;;;;;;5069522;28;19932;-74
2022/04/10 14:31:52;;;;;;;;;;;20.90;99.90;;;;;;5066511;28;19952;-74
2022/04/10 14:34:19;;;;;;;;;;;20.10;99.50;;;;;;5060302;28;19971;-75
2022/04/10 14:36:46;;;;;;;;;;;19.80;99.20;;;;;;5071065;28;19929;-75
2022/04/10 14:39:13;;;;;;;;;;;20.20;99.30;;;;;;5073224;28;20027;-75
2022/04/10 14:41:40;;;;;;;;;;;21.10;99.40;;;;;;5067843;28;19925;-75